Coeur d'Alene, ID (83814)

2:52 PM PDT on September 30, 2014 (GMT -0700)
Downtown Coeur d'Alene | Change Station
CLOSE
Current Station
Personal Weather Station
Location: Coeur d'Alene, ID
Elevation: 2175 ft
Nearby Weather Stations

Elev 2175 ft 47.67 °N, 116.79 °W | Updated 2 minutes ago

Partly Cloudy
Partly Cloudy
62.8 °F
Feels Like 62.8 °F
N
8.3
Wind Variable Wind from NE
Gusts 15.9 mph

Today
High -- | Low -- °F
--% Chance of Precip.
Yesterday
High -- | Low -- °F
Precip. -- in
6:44 AM 6:28 PM
Waxing Crescent, 40% visible
Pressure 29.88 in
Visibility 10.0 miles
Clouds Few 4900 ft
Scattered Clouds 6500 ft
Mostly Cloudy 9000 ft
Dew Point 43 °F
Humidity 49%
Rainfall 0.04 in
Snow Depth 0 in , 2 in , 0 in
UV 2 out of 12
Pollen 4.90 out of 12
Air Quality Not available.
Flu Activity Not available.
METAR KCOE 302135Z AUTO 13008KT 10SM VCTS FEW049 SCT065 BKN090 15/06 A2988 RMK AO1 LTG DSNT W TSB34

More Conditions Fewer Conditions

Pressure 29.88 in
Visibility 10.0 miles
Clouds Few 4900 ft
Scattered Clouds 6500 ft
Mostly Cloudy 9000 ft
Dew Point 43 °F
Humidity 49%
Rainfall 0.04 in
Snow Depth 0 in , 2 in , 0 in
UV 2 out of 12
Pollen 4.90 out of 12
Air Quality Not available.
Flu Activity Not available.
METAR KCOE 302135Z AUTO 13008KT 10SM VCTS FEW049 SCT065 BKN090 15/06 A2988 RMK AO1 LTG DSNT W TSB34

More Conditions Fewer Conditions

Nowcast | as of 2:10 PM PDT on September 30, 2014

Through 4 PM...isolated showers and a possible thunderstorm will drift in from the northwest. Expect light showers...but a heavy downpours is possible from a heavier shower along with wind gusts to 25 mph...especially north and east of Spokane into Coeur D'Alene. These showers will continue through the afternoon.

×

10-Day Weather Forecast

Almanac

Astronomy

Sep. 30, 2014 Rise Set
Actual Time 6:44 AM PDT 6:28 PM PDT
Civil Twilight 6:14 AM PDT 6:58 PM PDT
Nautical Twilight 5:38 AM PDT 7:34 PM PDT
Astronomical Twilight 5:01 AM PDT 8:11 PM PDT
Moon 1:16 PM PDT 10:43 PM PDT
Length of Visible Light 12h 44m
Length of Day
11h 43m
Tomorrow will be 3m 24s shorter.
Waxing Crescent, 40% of the Moon is Illuminated
Today
Waxing Crescent
Oct 1
First Quarter
Oct 8
Full
Oct 15
Last Quarter
Oct 23
New

Today's Extremes

State Highs State Lows

Community

WunderPhotos

Upload Photos

1,757,755 photos uploaded!

Nearby

Snow Depth

Station Depth Elevation
Crater Meadows 0 in 5960 ft
Franklin Basin 2 in 8170 ft
Bear Basin 0 in 5350 ft
Crab Creek 113 in 6860 ft
Island Park 0 in 6290 ft

Earthquake Activity

City Distance Mag. Time & Date
No recent earthquake activity has been reported nearby.
Minimum magnitude displayed is 2.5.

Coastal Water Temperatures

Place Temperature
No Stations Reporting

Nearby Weather Stations